Time;durP1;ratioP1;P1;durP2;ratioP2;P2;SDS_P1;SDS_P2;PMS_P1;PMS_P2;Temp;Humidity;BMP_temperature;BMP_pressure;BME280_temperature;BME280_humidity;BME280_pressure;Samples;Min_cycle;Max_cycle;Signal;HPM_P1;HPM_P2
2022/05/07 00:02:07;;;;;;;3.38;3.08;;;;;;;11.66;69.35;63205.56;5092981;28;20195;-74
2022/05/07 00:04:34;;;;;;;3.85;3.55;;;;;;;11.59;70.02;63193.72;5086933;28;20216;-74
2022/05/07 00:07:01;;;;;;;3.85;3.20;;;;;;;11.53;70.24;63187.50;5096246;28;20264;-74
2022/05/07 00:09:29;;;;;;;4.63;3.03;;;;;;;11.45;70.68;63181.75;5091112;28;20216;-74
2022/05/07 00:11:56;;;;;;;4.50;3.42;;;;;;;11.38;71.41;63174.50;5083002;28;20247;-74
2022/05/07 00:14:23;;;;;;;4.00;3.63;;;;;;;11.39;72.04;63172.47;5082205;28;20259;-74
2022/05/07 00:19:35;;;;;;;2.88;2.70;;;;;;;11.17;73.17;63147.66;5091729;28;20219;-74
2022/05/07 00:22:02;;;;;;;4.15;3.22;;;;;;;11.24;72.16;63152.38;5085254;28;20196;-74
2022/05/07 00:24:30;;;;;;;2.83;2.63;;;;;;;11.06;72.08;63138.81;5082220;28;20246;-74
2022/05/07 00:26:57;;;;;;;3.13;2.92;;;;;;;11.05;71.64;63132.69;5097088;28;20206;-74
2022/05/07 00:29:24;;;;;;;3.60;3.00;;;;;;;11.02;71.60;63134.16;5083351;28;20543;-74
2022/05/07 00:31:51;;;;;;;3.03;2.80;;;;;;;11.14;71.52;63144.03;5088092;28;20206;-74
2022/05/07 00:34:17;;;;;;;4.20;3.28;;;;;;;11.11;70.87;63148.56;5087452;28;20232;-73
2022/05/07 00:36:44;;;;;;;3.42;3.13;;;;;;;11.02;69.11;63139.25;5082429;28;20213;-73
2022/05/07 00:39:11;;;;;;;4.75;2.75;;;;;;;11.14;69.02;63149.13;5083724;28;20220;-74
2022/05/07 00:41:40;;;;;;;2.80;2.58;;;;;;;11.13;68.98;63148.59;5081790;28;20192;-74
2022/05/07 00:44:07;;;;;;;4.68;3.47;;;;;;;11.06;66.56;63141.34;5081804;28;20240;-74
2022/05/07 00:46:34;;;;;;;8.27;3.58;;;;;;;11.06;67.39;63136.25;5093598;28;20204;-74
2022/05/07 00:49:02;;;;;;;3.38;3.00;;;;;;;11.15;66.21;63142.50;5095669;28;20291;-74
2022/05/07 00:51:33;;;;;;;4.55;2.47;;;;;;;11.10;66.35;63142.97;5099531;28;20199;-74
2022/05/07 00:54:01;;;;;;;5.95;3.05;;;;;;;11.12;66.72;63147.06;5085779;28;20225;-73
2022/05/07 00:56:28;;;;;;;4.03;3.08;;;;;;;11.12;65.37;63147.06;5084582;28;20204;-74
2022/05/07 00:58:58;;;;;;;5.25;2.72;;;;;;;11.15;65.39;63148.13;5088771;28;20204;-74
2022/05/07 01:01:25;;;;;;;3.92;2.92;;;;;;;11.10;66.35;63142.44;5088047;28;20216;-74
2022/05/07 01:03:52;;;;;;;2.80;2.60;;;;;;;11.09;66.46;63139.38;5085593;28;20419;-73
2022/05/07 01:06:20;;;;;;;2.38;2.17;;;;;;;11.05;64.78;63134.72;5083707;28;20203;-75
2022/05/07 01:08:48;;;;;;;2.83;2.38;;;;;;;11.03;64.46;63133.16;5092917;28;20196;-74
2022/05/07 01:11:16;;;;;;;3.25;2.90;;;;;;;11.05;64.28;63134.72;5091443;28;20234;-73
2022/05/07 01:13:44;;;;;;;2.85;2.67;;;;;;;11.10;64.43;63147.53;5100826;28;20207;-75
2022/05/07 01:16:13;;;;;;;3.90;2.45;;;;;;;11.00;64.63;63132.09;5099659;28;20224;-74
2022/05/07 01:18:41;;;;;;;3.20;2.92;;;;;;;11.06;64.10;63140.84;5095220;28;20208;-75
2022/05/07 01:21:10;;;;;;;2.75;2.50;;;;;;;11.01;63.88;63131.09;5102506;28;20196;-74
2022/05/07 01:23:38;;;;;;;2.83;2.55;;;;;;;11.10;63.67;63145.50;5102532;28;20196;-74
2022/05/07 01:26:04;;;;;;;2.45;2.25;;;;;;;11.09;62.79;63144.47;5090130;28;20501;-73
2022/05/07 01:28:31;;;;;;;3.40;2.42;;;;;;;11.06;62.94;63141.34;5102632;28;20492;-74
2022/05/07 01:30:58;;;;;;;2.63;2.42;;;;;;;11.09;62.92;63141.94;5092479;28;20216;-74
2022/05/07 01:33:25;;;;;;;3.95;2.55;;;;;;;11.06;63.48;63143.41;5104835;28;20210;-73
2022/05/07 01:35:52;;;;;;;2.17;2.00;;;;;;;11.08;62.98;63140.88;5096957;28;20228;-74
2022/05/07 01:38:20;;;;;;;2.17;2.08;;;;;;;11.00;62.90;63134.63;5091476;28;20200;-74
2022/05/07 01:40:47;;;;;;;3.95;2.38;;;;;;;11.07;62.31;63144.94;5094977;28;20216;-74
2022/05/07 01:43:14;;;;;;;4.00;2.55;;;;;;;11.05;62.04;63139.81;5091058;28;20196;-74
2022/05/07 01:45:41;;;;;;;3.10;1.98;;;;;;;11.05;61.76;63142.88;5083755;28;20229;-74
2022/05/07 01:48:10;;;;;;;2.58;1.90;;;;;;;11.00;61.70;63135.16;5091344;28;20516;-74
2022/05/07 01:50:38;;;;;;;1.77;1.67;;;;;;;11.01;60.85;63130.59;5093564;28;20216;-73
2022/05/07 01:53:05;;;;;;;3.17;1.95;;;;;;;10.99;60.66;63131.06;5097283;28;20210;-73
2022/05/07 01:55:34;;;;;;;2.83;2.22;;;;;;;10.85;60.75;63119.09;5084757;28;20233;-73
2022/05/07 01:58:02;;;;;;;2.20;2.00;;;;;;;10.88;61.22;63122.72;5088608;28;20196;-74
2022/05/07 02:00:30;;;;;;;2.95;2.10;;;;;;;10.84;60.31;63118.59;5087003;28;20248;-73
2022/05/07 02:02:58;;;;;;;4.70;2.03;;;;;;;10.78;61.08;63111.84;5088496;28;20204;-73
2022/05/07 02:05:26;;;;;;;2.25;2.15;;;;;;;10.84;61.05;63118.59;5088540;28;20230;-74
2022/05/07 02:07:53;;;;;;;3.83;2.03;;;;;;;10.72;60.80;63101.06;5088286;28;20207;-74
2022/05/07 02:10:20;;;;;;;4.55;2.40;;;;;;;10.53;62.05;63080.91;5084701;28;20223;-73
2022/05/07 02:12:49;;;;;;;2.03;1.92;;;;;;;10.45;62.45;63076.19;5084867;28;20196;-74
2022/05/07 02:15:16;;;;;;;1.92;1.83;;;;;;;10.50;62.64;63085.94;5097108;28;20243;-74
2022/05/07 02:17:42;;;;;;;2.53;1.88;;;;;;;10.45;62.94;63075.69;5097664;28;20245;-73
2022/05/07 02:20:10;;;;;;;5.70;2.25;;;;;;;10.45;62.93;63073.66;5103572;28;20216;-73
2022/05/07 02:22:37;;;;;;;2.78;2.38;;;;;;;10.41;62.17;63074.06;5098303;28;20197;-74
2022/05/07 02:25:05;;;;;;;3.90;2.30;;;;;;;10.43;61.79;63074.13;5088918;28;20254;-74
2022/05/07 02:27:32;;;;;;;2.50;2.15;;;;;;;10.39;62.82;63067.44;5085073;28;20243;-75
2022/05/07 02:30:00;;;;;;;9.40;2.42;;;;;;;10.34;62.56;63064.28;5084130;28;20270;-75
2022/05/07 02:32:27;;;;;;;2.67;2.45;;;;;;;10.33;63.06;63066.31;5083222;28;20247;-74
2022/05/07 02:34:53;;;;;;;2.50;2.40;;;;;;;10.28;65.06;63058.09;5086090;28;20286;-74
2022/05/07 02:37:20;;;;;;;2.28;2.17;;;;;;;10.16;67.13;63046.16;5103691;28;20444;-74
2022/05/07 02:39:48;;;;;;;3.22;2.40;;;;;;;10.07;68.64;63039.41;5099011;28;20265;-73
2022/05/07 02:45:01;;;;;;;4.57;2.50;;;;;;;9.72;72.00;63000.66;5088279;28;20265;-74
2022/05/07 02:47:28;;;;;;;3.53;2.55;;;;;;;9.60;70.26;62990.25;5089823;28;20200;-74
2022/05/07 02:49:55;;;;;;;6.20;2.70;;;;;;;9.55;72.76;62982.53;5104458;28;20413;-73
2022/05/07 02:52:22;;;;;;;2.70;2.50;;;;;;;9.48;73.92;62978.38;5089736;28;20212;-74
2022/05/07 02:54:49;;;;;;;2.35;2.17;;;;;;;9.46;74.37;62973.75;5084196;28;20391;-75
2022/05/07 02:57:16;;;;;;;4.88;2.78;;;;;;;9.33;75.87;62960.31;5093545;28;20219;-74
2022/05/07 02:59:43;;;;;;;2.88;2.60;;;;;;;9.22;78.44;62951.47;5083526;28;20451;-74
2022/05/07 03:02:12;;;;;;;3.47;2.58;;;;;;;9.08;79.86;62937.00;5085724;28;20199;-74
2022/05/07 03:04:39;;;;;;;3.20;2.58;;;;;;;8.88;81.56;62919.41;5083419;28;20224;-74
2022/05/07 03:07:06;;;;;;;4.05;2.72;;;;;;;8.79;82.34;62904.50;5083310;28;20238;-74
2022/05/07 03:09:33;;;;;;;2.80;2.65;;;;;;;8.70;83.13;62895.72;5083355;28;20562;-75
2022/05/07 03:12:00;;;;;;;3.20;2.30;;;;;;;8.62;83.46;62890.00;5086798;28;20254;-74
2022/05/07 03:14:27;;;;;;;3.03;2.72;;;;;;;8.56;83.33;62883.28;5083493;28;20544;-74
2022/05/07 03:16:54;;;;;;;4.70;2.92;;;;;;;8.54;84.30;62876.13;5083497;28;20242;-73
2022/05/07 03:19:22;;;;;;;3.00;2.70;;;;;;;8.51;84.79;62873.03;5086209;28;20385;-74
2022/05/07 03:21:49;;;;;;;2.92;2.63;;;;;;;8.48;85.28;62872.47;5096228;28;20201;-75
2022/05/07 03:24:16;;;;;;;3.72;2.80;;;;;;;8.44;85.69;62866.31;5085149;28;20216;-75
2022/05/07 03:26:43;;;;;;;2.63;2.47;;;;;;;8.45;85.17;62869.91;5084624;28;20205;-75
2022/05/07 03:29:10;;;;;;;5.57;2.95;;;;;;;8.46;85.78;62872.94;5090975;28;20217;-74
2022/05/07 03:31:37;;;;;;;4.20;2.47;;;;;;;8.46;85.82;62872.94;5085403;28;20208;-73
2022/05/07 03:34:04;;;;;;;3.30;2.40;;;;;;;8.52;85.31;62884.22;5083815;28;20226;-73
2022/05/07 03:36:32;;;;;;;2.95;2.58;;;;;;;8.55;85.32;62882.75;5088689;28;20227;-73
2022/05/07 03:38:59;;;;;;;5.72;2.78;;;;;;;8.53;86.45;62878.16;5091928;28;20199;-73
2022/05/07 03:41:26;;;;;;;5.43;2.80;;;;;;;8.49;86.79;62871.47;5089466;28;20204;-74
2022/05/07 03:43:53;;;;;;;6.57;2.67;;;;;;;8.54;86.97;62881.72;5093649;28;20203;-73
2022/05/07 03:46:21;;;;;;;4.97;3.08;;;;;;;8.55;85.78;62882.25;5097558;28;20208;-73
2022/05/07 03:48:48;;;;;;;2.88;2.67;;;;;;;8.56;86.11;62880.75;5081731;28;20497;-74
2022/05/07 03:51:14;;;;;;;3.00;2.78;;;;;;;8.54;86.07;62881.22;5082236;28;20207;-74
2022/05/07 03:53:42;;;;;;;5.40;2.65;;;;;;;8.53;86.74;62878.16;5082653;28;20204;-73
2022/05/07 03:56:09;;;;;;;2.83;2.63;;;;;;;8.61;85.52;62888.44;5084812;28;20283;-74
2022/05/07 03:58:37;;;;;;;2.92;2.72;;;;;;;8.62;86.15;62884.91;5083051;28;20199;-74
2022/05/07 04:01:04;;;;;;;2.65;2.55;;;;;;;8.67;87.30;62895.16;5082230;28;20219;-73
2022/05/07 04:03:32;;;;;;;2.83;2.63;;;;;;;8.77;87.42;62899.88;5083212;28;20203;-73
2022/05/07 04:05:59;;;;;;;3.03;2.72;;;;;;;8.87;86.92;62910.25;5089215;28;20215;-74
2022/05/07 04:08:26;;;;;;;3.70;2.97;;;;;;;8.96;87.02;62922.59;5102396;28;20204;-73
2022/05/07 04:10:55;;;;;;;2.80;2.60;;;;;;;9.11;86.44;62938.09;5102379;28;20265;-73
2022/05/07 04:13:21;;;;;;;4.30;3.20;;;;;;;9.32;85.83;62956.75;5082084;28;20250;-75
2022/05/07 04:15:48;;;;;;;2.80;2.60;;;;;;;9.51;84.44;62978.94;5085277;28;20240;-74
2022/05/07 04:18:16;;;;;;;3.00;2.80;;;;;;;9.70;82.09;63001.13;5090671;28;20196;-73
2022/05/07 04:20:43;;;;;;;2.70;2.50;;;;;;;9.92;80.58;63018.28;5085001;28;20224;-74
2022/05/07 04:23:10;;;;;;;2.85;2.63;;;;;;;10.19;79.05;63051.84;5092922;28;20449;-73
2022/05/07 04:25:38;;;;;;;3.15;2.80;;;;;;;10.35;76.35;63067.88;5083130;28;20220;-74
2022/05/07 04:28:06;;;;;;;5.70;2.90;;;;;;;10.34;78.46;63071.91;5087617;28;20271;-74
2022/05/07 04:30:33;;;;;;;6.55;2.85;;;;;;;10.54;78.16;63087.03;5095182;28;20220;-75
2022/05/07 04:33:00;;;;;;;4.68;2.95;;;;;;;10.64;76.97;63095.34;5092549;28;20197;-74
2022/05/07 04:35:27;;;;;;;4.10;2.75;;;;;;;10.89;76.23;63118.66;5082763;28;20243;-74
2022/05/07 04:37:54;;;;;;;3.30;2.67;;;;;;;11.22;74.03;63154.88;5085418;28;20221;-73
2022/05/07 04:40:21;;;;;;;3.80;2.63;;;;;;;11.49;72.70;63182.84;5096130;28;20244;-74
2022/05/07 04:42:48;;;;;;;4.78;2.72;;;;;;;11.71;71.34;63205.13;5092369;28;20192;-74
2022/05/07 04:45:16;;;;;;;6.32;3.30;;;;;;;11.94;70.63;63228.97;5104012;28;20236;-74
2022/05/07 04:47:43;;;;;;;5.80;3.03;;;;;;;12.06;69.70;63244.47;5092273;28;20239;-73
2022/05/07 04:50:11;;;;;;;5.63;2.78;;;;;;;12.22;68.66;63255.94;5087372;28;20491;-74
2022/05/07 04:52:38;;;;;;;5.15;2.88;;;;;;;12.29;68.44;63270.84;5091309;28;20485;-74
2022/05/07 04:55:06;;;;;;;2.97;2.78;;;;;;;12.45;67.88;63282.34;5105831;28;20219;-73
2022/05/07 04:57:33;;;;;;;2.50;2.30;;;;;;;12.62;67.24;63299.97;5097716;28;20389;-74
2022/05/07 05:00:00;;;;;;;3.58;2.67;;;;;;;12.59;67.38;63298.88;5083880;28;20652;-73
2022/05/07 05:02:28;;;;;;;2.85;2.65;;;;;;;12.49;67.63;63283.91;5085718;28;20196;-73
2022/05/07 05:04:55;;;;;;;3.85;2.70;;;;;;;12.67;67.73;63302.06;5085813;28;20514;-74
2022/05/07 05:07:22;;;;;;;5.35;2.70;;;;;;;12.91;65.70;63329.00;5091340;28;20283;-74
2022/05/07 05:09:49;;;;;;;3.15;2.95;;;;;;;12.99;65.87;63337.81;5102893;28;20287;-76
2022/05/07 05:12:17;;;;;;;3.15;2.72;;;;;;;12.88;64.97;63328.44;5100359;28;20436;-74
2022/05/07 05:15:03;;;;;;;2.50;2.40;;;;;;;12.97;64.79;63335.75;5086522;28;20277;-74
2022/05/07 05:17:32;;;;;;;3.97;2.88;;;;;;;13.04;65.02;63343.03;5104237;28;20214;-74
2022/05/07 05:19:59;;;;;;;3.15;2.90;;;;;;;13.10;64.39;63351.78;5104149;28;20574;-74
2022/05/07 05:22:26;;;;;;;24.50;11.63;;;;;;;13.14;64.90;63358.00;5106149;28;20368;-75
2022/05/07 05:24:53;;;;;;;3.88;3.33;;;;;;;13.26;64.74;63367.88;5098271;28;20224;-74
2022/05/07 05:27:20;;;;;;;5.72;5.13;;;;;;;13.19;63.53;63360.63;5085784;28;20205;-74
2022/05/07 05:29:47;;;;;;;3.63;2.90;;;;;;;13.34;63.23;63374.13;5088845;28;20226;-75
2022/05/07 05:32:17;;;;;;;2.80;2.60;;;;;;;13.23;62.88;63360.19;5086162;28;20208;-75
2022/05/07 05:34:47;;;;;;;2.70;2.60;;;;;;;13.16;63.44;63360.59;5091400;28;20236;-74
2022/05/07 05:37:15;;;;;;;4.20;2.35;;;;;;;13.15;63.99;63356.97;5087739;28;20224;-76
2022/05/07 05:39:43;;;;;;;3.63;2.70;;;;;;;13.12;63.83;63348.75;5096132;28;20215;-75
2022/05/07 05:42:11;;;;;;;3.65;3.33;;;;;;;13.31;64.21;63373.59;5100093;28;20219;-75
2022/05/07 05:44:39;;;;;;;4.10;3.10;;;;;;;13.59;63.11;63400.09;5086667;28;20548;-75
2022/05/07 05:47:07;;;;;;;4.43;3.05;;;;;;;13.85;62.01;63429.13;5090935;28;20477;-78
2022/05/07 05:49:35;;;;;;;3.40;2.80;;;;;;;13.90;61.53;63429.19;5086615;28;20459;-76
2022/05/07 05:52:04;;;;;;;6.20;3.45;;;;;;;13.96;61.48;63437.47;5096850;28;20394;-77
2022/05/07 05:54:31;;;;;;;4.85;3.33;;;;;;;14.00;61.44;63441.59;5085093;28;20541;-77
2022/05/07 05:56:59;;;;;;;6.20;3.22;;;;;;;14.21;61.65;63463.41;5085626;28;20227;-78
2022/05/07 05:59:26;;;;;;;3.95;2.92;;;;;;;14.31;61.71;63476.88;5085488;28;20221;-77
2022/05/07 06:01:53;;;;;;;5.05;3.35;;;;;;;14.57;62.13;63503.88;5090023;28;20196;-77
2022/05/07 06:04:21;;;;;;;3.83;3.47;;;;;;;14.71;62.12;63520.47;5103288;28;20219;-77
2022/05/07 06:06:47;;;;;;;7.20;3.15;;;;;;;14.33;59.72;63478.44;5085991;28;20392;-77
2022/05/07 06:09:16;;;;;;;3.80;3.28;;;;;;;14.54;61.09;63497.69;5084782;28;20211;-77
2022/05/07 06:11:43;;;;;;;4.43;3.55;;;;;;;14.63;61.50;63507.03;5084364;28;20210;-77
2022/05/07 06:14:10;;;;;;;8.15;3.42;;;;;;;14.68;62.85;63517.88;5092733;28;20224;-77
2022/05/07 06:16:37;;;;;;;3.60;3.20;;;;;;;14.80;61.72;63527.78;5086180;28;20313;-78
2022/05/07 06:19:04;;;;;;;3.95;3.55;;;;;;;14.88;61.26;63533.53;5083903;28;20253;-77
2022/05/07 06:21:31;;;;;;;5.10;3.47;;;;;;;15.05;59.22;63545.53;5104217;28;20207;-77
2022/05/07 06:27:28;;;;;;;3.78;3.45;;;;;;;15.17;59.81;63565.19;5097037;28;20211;-77
2022/05/07 06:29:30;;;;;;;2.60;2.40;;;;;;;14.97;56.61;63542.88;5095700;28;20257;-78
2022/05/07 06:31:57;;;;;;;5.20;3.25;;;;;;;14.86;56.39;63536.56;5090998;28;20509;-77
2022/05/07 06:34:24;;;;;;;3.92;3.58;;;;;;;14.92;56.71;63540.25;5096070;28;20223;-77
2022/05/07 06:36:52;;;;;;;7.13;4.80;;;;;;;15.18;56.52;63566.75;5097406;28;20445;-77
2022/05/07 06:39:20;;;;;;;3.45;2.60;;;;;;;15.33;55.74;63579.78;5099392;28;20219;-76
2022/05/07 06:41:50;;;;;;;5.50;2.97;;;;;;;15.12;54.61;63554.88;5082086;28;20271;-76
2022/05/07 06:44:16;;;;;;;3.55;2.78;;;;;;;15.06;53.88;63551.72;5084381;28;20220;-77
2022/05/07 06:46:44;;;;;;;3.08;2.88;;;;;;;15.20;55.40;63568.84;5096452;28;20195;-76
2022/05/07 06:49:11;;;;;;;4.38;3.30;;;;;;;15.48;56.02;63600.00;5094678;28;20204;-77
2022/05/07 06:51:38;;;;;;;3.08;2.88;;;;;;;15.33;53.96;63581.81;5087505;28;20206;-76
2022/05/07 06:54:05;;;;;;;3.15;2.95;;;;;;;15.40;54.24;63592.19;5088559;28;20453;-74
2022/05/07 06:56:33;;;;;;;6.80;3.30;;;;;;;15.47;54.97;63593.81;5084937;28;20238;-76
2022/05/07 06:59:01;;;;;;;3.58;3.15;;;;;;;15.55;56.33;63604.72;5087813;28;20261;-76
2022/05/07 07:01:29;;;;;;;3.70;3.00;;;;;;;15.53;56.96;63600.06;5089388;28;20199;-75
2022/05/07 07:03:55;;;;;;;4.13;3.00;;;;;;;15.29;55.70;63577.66;5084437;28;20215;-75
2022/05/07 07:06:22;;;;;;;3.40;3.03;;;;;;;15.44;54.02;63590.72;5086065;28;20234;-74
2022/05/07 07:08:52;;;;;;;3.03;2.58;;;;;;;15.63;53.39;63610.97;5084221;28;20200;-74
2022/05/07 07:11:20;;;;;;;4.25;3.17;;;;;;;15.55;51.95;63604.72;5089185;28;20241;-74
2022/05/07 07:13:47;;;;;;;3.10;2.90;;;;;;;15.58;52.32;63607.81;5097628;28;20203;-75
2022/05/07 07:16:16;;;;;;;7.82;3.08;;;;;;;15.24;54.10;63569.91;5095758;28;20569;-75
2022/05/07 07:18:44;;;;;;;3.22;2.97;;;;;;;15.55;53.42;63602.16;5093078;28;20242;-74
2022/05/07 07:21:12;;;;;;;3.00;2.42;;;;;;;15.85;52.12;63639.00;5097057;28;20207;-74
2022/05/07 07:23:39;;;;;;;5.65;2.85;;;;;;;16.13;51.13;63659.88;5082484;28;20222;-74
2022/05/07 07:26:06;;;;;;;3.05;2.83;;;;;;;16.40;51.40;63690.53;5084514;28;20696;-74
2022/05/07 07:28:33;;;;;;;2.83;2.65;;;;;;;16.69;50.75;63717.63;5087822;28;20198;-75
2022/05/07 07:31:00;;;;;;;2.72;2.53;;;;;;;16.66;50.69;63720.16;5093036;28;20211;-74
2022/05/07 07:33:28;;;;;;;4.40;3.08;;;;;;;16.89;50.12;63741.53;5084260;28;20200;-74
2022/05/07 07:35:55;;;;;;;5.70;2.63;;;;;;;17.13;49.72;63766.00;5089178;28;20231;-74
2022/05/07 07:38:22;;;;;;;3.20;2.90;;;;;;;17.28;48.93;63781.59;5098694;28;20195;-74
2022/05/07 07:40:51;;;;;;;3.08;2.72;;;;;;;17.41;47.39;63799.75;5096525;28;20224;-74
2022/05/07 07:43:18;;;;;;;3.33;2.88;;;;;;;17.28;48.84;63784.69;5085390;28;20221;-75
2022/05/07 07:48:32;;;;;;;4.00;3.00;;;;;;;17.11;48.42;63763.91;5088598;28;20230;-75
2022/05/07 07:50:59;;;;;;;3.35;3.03;;;;;;;17.44;47.21;63795.69;5096249;28;20290;-74
2022/05/07 07:53:26;;;;;;;2.88;2.67;;;;;;;17.67;47.24;63819.63;5098206;28;20191;-76
2022/05/07 07:55:54;;;;;;;3.80;3.50;;;;;;;17.59;47.74;63815.94;5087466;28;20216;-75
2022/05/07 07:58:20;;;;;;;3.60;2.85;;;;;;;17.65;46.66;63822.19;5093922;28;20199;-75
2022/05/07 08:00:47;;;;;;;3.80;2.83;;;;;;;17.74;46.63;63832.09;5093705;28;20443;-75
2022/05/07 08:03:16;;;;;;;3.10;2.85;;;;;;;18.16;44.75;63878.41;5093628;28;20275;-75
2022/05/07 08:05:46;;;;;;;2.88;2.67;;;;;;;18.00;47.40;63856.06;5083164;28;20584;-75
2022/05/07 08:13:44;;;;;;;4.55;2.55;;;;;;;18.79;45.21;63940.47;5083585;28;20199;-73
2022/05/07 08:16:12;;;;;;;3.97;3.42;;;;;;;18.57;45.48;63918.03;5082471;28;20416;-74
2022/05/07 08:18:41;;;;;;;4.63;3.47;;;;;;;18.61;45.82;63922.22;5086075;28;20531;-74
2022/05/07 08:21:11;;;;;;;4.15;3.00;;;;;;;18.71;44.76;63927.47;5101329;28;20194;-74
2022/05/07 08:23:38;;;;;;;5.38;3.28;;;;;;;18.59;44.53;63917.56;5102358;28;20225;-75
2022/05/07 08:26:06;;;;;;;3.22;2.97;;;;;;;18.27;45.68;63884.72;5086699;28;20196;-75
2022/05/07 08:28:33;;;;;;;7.20;2.80;;;;;;;18.27;45.73;63884.72;5086304;28;20226;-75
2022/05/07 08:31:01;;;;;;;3.90;3.22;;;;;;;18.40;46.02;63902.91;5093660;28;20216;-73
2022/05/07 08:33:28;;;;;;;3.10;2.90;;;;;;;18.14;46.33;63873.75;5086783;28;20195;-74
2022/05/07 08:35:55;;;;;;;3.10;2.85;;;;;;;18.32;44.87;63894.56;5085682;28;20215;-76
2022/05/07 08:38:24;;;;;;;3.40;3.10;;;;;;;18.62;45.03;63920.16;5085564;28;20529;-75
2022/05/07 08:40:51;;;;;;;3.92;3.42;;;;;;;18.86;45.23;63947.75;5092106;28;20530;-74
2022/05/07 08:43:19;;;;;;;2.95;2.75;;;;;;;18.89;46.28;63954.00;5092449;28;20211;-74
2022/05/07 08:45:46;;;;;;;4.97;3.55;;;;;;;19.03;44.34;63963.44;5085925;28;20242;-74
2022/05/07 08:48:13;;;;;;;3.88;2.95;;;;;;;19.08;44.20;63973.81;5086421;28;20226;-74
2022/05/07 08:50:40;;;;;;;4.25;2.92;;;;;;;19.04;45.88;63964.47;5098289;28;20207;-75
2022/05/07 08:53:09;;;;;;;5.38;3.28;;;;;;;18.78;45.27;63936.84;5092536;28;20218;-74
2022/05/07 08:55:37;;;;;;;3.13;2.90;;;;;;;19.09;45.57;63966.56;5085242;28;20279;-73
2022/05/07 08:58:05;;;;;;;3.72;3.13;;;;;;;19.32;44.37;63996.25;5088748;28;20228;-74
2022/05/07 09:00:33;;;;;;;4.40;3.38;;;;;;;19.42;43.56;64006.16;5086421;28;20544;-75
2022/05/07 09:03:01;;;;;;;3.75;3.00;;;;;;;19.69;41.18;64031.72;5098944;28;20203;-74
2022/05/07 09:05:37;;;;;;;2.70;2.50;;;;;;;19.65;42.97;64030.16;5105996;28;20222;-74
2022/05/07 09:08:06;;;;;;;3.33;2.70;;;;;;;19.78;42.79;64040.59;5091070;28;20238;-74
2022/05/07 09:10:38;;;;;;;2.88;2.35;;;;;;;19.77;39.92;64042.16;5085196;28;20216;-74
2022/05/07 09:13:13;;;;;;;3.10;2.90;;;;;;;19.92;40.99;64058.31;5085987;28;20196;-74
2022/05/07 09:15:50;;;;;;;3.45;2.55;;;;;;;20.03;41.93;64071.84;5088869;28;20218;-74
2022/05/07 09:18:19;;;;;;;3.13;2.88;;;;;;;20.34;40.36;64101.63;5086199;28;20224;-74
2022/05/07 09:20:57;;;;;;;3.67;2.75;;;;;;;20.27;40.10;64094.34;5085023;28;20227;-74
2022/05/07 09:23:24;;;;;;;2.80;2.60;;;;;;;19.66;40.81;64031.19;5085707;28;20259;-76
2022/05/07 09:25:52;;;;;;;2.45;2.25;;;;;;;20.15;42.60;64079.22;5089069;28;20231;-75
2022/05/07 09:28:26;;;;;;;2.65;2.42;;;;;;;20.23;39.17;64090.16;5095607;28;20250;-75
2022/05/07 09:30:56;;;;;;;4.20;2.53;;;;;;;20.26;40.37;64095.88;5084840;28;20232;-74
2022/05/07 09:33:32;;;;;;;2.15;2.05;;;;;;;20.27;40.73;64094.34;5085340;28;20264;-75
2022/05/07 09:36:10;;;;;;;2.97;2.60;;;;;;;20.08;40.54;64075.00;5085007;28;20283;-73
2022/05/07 09:38:38;;;;;;;2.97;2.70;;;;;;;20.12;40.13;64079.19;5084820;28;20220;-74
2022/05/07 09:41:07;;;;;;;2.85;2.35;;;;;;;20.19;39.40;64088.59;5085392;28;20200;-74
2022/05/07 09:43:34;;;;;;;2.47;2.30;;;;;;;20.24;38.60;64089.13;5090658;28;20237;-76
2022/05/07 09:46:01;;;;;;;2.85;2.67;;;;;;;19.97;40.01;64057.84;5086935;28;20220;-75
2022/05/07 09:48:30;;;;;;;3.72;2.50;;;;;;;20.37;38.71;64104.75;5085721;28;20204;-75
2022/05/07 09:50:58;;;;;;;4.07;2.20;;;;;;;20.49;39.43;64117.28;5090735;28;20243;-75
2022/05/07 09:58:55;;;;;;;2.67;2.53;;;;;;;20.34;39.85;64106.81;5086569;28;20187;-76
2022/05/07 10:01:51;;;;;;;3.20;2.40;;;;;;;20.60;40.31;64126.19;5097875;28;20246;-74
2022/05/07 10:04:38;;;;;;;2.70;2.50;;;;;;;20.77;39.13;64149.13;5105258;28;20255;-74
2022/05/07 10:07:22;;;;;;;4.57;2.60;;;;;;;20.82;40.78;64156.41;5086026;28;20203;-74
2022/05/07 10:10:05;;;;;;;2.60;2.40;;;;;;;21.00;38.86;64170.03;5089188;28;20230;-75
2022/05/07 10:12:34;;;;;;;3.17;2.25;;;;;;;21.29;38.65;64200.31;5086827;28;20215;-74
2022/05/07 10:15:09;;;;;;;2.80;2.53;;;;;;;21.29;36.88;64202.91;5097135;28;20223;-74
2022/05/07 10:17:36;;;;;;;3.03;2.83;;;;;;;21.43;36.65;64215.44;5104659;28;20236;-75
2022/05/07 10:20:08;;;;;;;2.15;2.05;;;;;;;21.26;34.67;64197.69;5089756;28;20378;-74
2022/05/07 10:22:35;;;;;;;2.72;2.53;;;;;;;21.09;37.55;64179.44;5084611;28;20188;-74
2022/05/07 10:25:06;;;;;;;3.53;2.45;;;;;;;21.08;36.97;64180.97;5084392;28;20212;-75
2022/05/07 10:27:37;;;;;;;3.45;2.35;;;;;;;21.16;37.04;64189.84;5087551;28;20223;-76
2022/05/07 10:30:07;;;;;;;2.75;1.98;;;;;;;20.82;35.93;64151.22;5086357;28;20253;-75
2022/05/07 10:32:46;;;;;;;4.35;2.40;;;;;;;20.96;36.00;64165.84;5084818;28;20214;-75
2022/05/07 10:35:14;;;;;;;2.90;2.70;;;;;;;21.08;36.56;64178.38;5084497;28;20226;-74
2022/05/07 10:37:41;;;;;;;3.42;2.05;;;;;;;21.04;31.81;64174.19;5087908;28;20333;-74
2022/05/07 10:40:11;;;;;;;2.00;1.90;;;;;;;21.12;30.89;64180.47;5083831;28;20235;-74
2022/05/07 10:42:40;;;;;;;7.32;2.00;;;;;;;21.41;33.29;64215.44;5083953;28;20214;-75
2022/05/07 10:45:08;;;;;;;3.15;1.92;;;;;;;20.94;33.05;64161.16;5085523;28;20269;-75
2022/05/07 10:47:35;;;;;;;4.97;2.50;;;;;;;21.17;36.09;64188.31;5085280;28;20234;-74
2022/05/07 10:50:10;;;;;;;3.20;2.55;;;;;;;21.10;37.03;64180.47;5083655;28;20219;-74
2022/05/07 10:52:40;;;;;;;3.92;2.50;;;;;;;20.97;37.32;64169.47;5088179;28;20349;-75
2022/05/07 10:55:10;;;;;;;8.50;3.80;;;;;;;21.06;36.10;64173.69;5096486;28;20215;-73
2022/05/07 10:57:46;;;;;;;3.20;2.40;;;;;;;21.33;36.96;64205.00;5084783;28;20238;-74
2022/05/07 11:00:16;;;;;;;2.72;2.53;;;;;;;21.61;35.70;64234.25;5084774;28;20390;-74
2022/05/07 11:02:43;;;;;;;5.18;2.85;;;;;;;21.52;35.53;64227.44;5104355;28;20201;-74
2022/05/07 11:05:11;;;;;;;4.22;2.47;;;;;;;21.01;32.33;64171.06;5088927;28;20219;-74
2022/05/07 11:07:38;;;;;;;2.00;1.90;;;;;;;21.23;33.08;64188.88;5082827;28;20203;-74
2022/05/07 11:10:06;;;;;;;2.42;2.20;;;;;;;21.58;32.22;64233.72;5084804;28;20279;-75
2022/05/07 11:12:35;;;;;;;2.78;2.08;;;;;;;21.59;29.97;64231.66;5086246;28;20492;-74
2022/05/07 11:15:04;;;;;;;3.45;1.92;;;;;;;21.70;30.27;64248.84;5084361;28;20599;-76
2022/05/07 11:17:35;;;;;;;1.88;1.77;;;;;;;21.70;31.58;64246.25;5083394;28;20228;-74
2022/05/07 11:20:03;;;;;;;2.63;1.85;;;;;;;21.63;30.34;64233.75;5084070;28;20231;-73
2022/05/07 11:22:31;;;;;;;1.92;1.80;;;;;;;21.87;28.50;64257.81;5086875;28;20269;-75
2022/05/07 11:24:59;;;;;;;1.98;1.80;;;;;;;22.15;28.73;64287.06;5083776;28;20270;-73
2022/05/07 11:27:32;;;;;;;1.83;1.73;;;;;;;22.29;30.17;64304.28;5082017;28;20203;-74
2022/05/07 11:29:59;;;;;;;2.13;2.03;;;;;;;22.38;29.08;64316.81;5083609;28;20275;-75
2022/05/07 11:32:36;;;;;;;2.75;1.88;;;;;;;22.19;29.94;64296.97;5086295;28;20207;-75
2022/05/07 11:35:03;;;;;;;1.83;1.70;;;;;;;22.23;31.09;64295.94;5082942;28;20223;-74
2022/05/07 11:37:38;;;;;;;4.32;3.90;;;;;;;22.22;31.38;64294.38;5083528;28;20273;-75
2022/05/07 11:40:06;;;;;;;5.82;2.75;;;;;;;22.61;31.30;64337.75;5087527;28;20275;-74
2022/05/07 11:42:35;;;;;;;1.98;1.88;;;;;;;22.25;30.71;64297.50;5083144;28;20519;-73
2022/05/07 11:47:54;;;;;;;2.03;1.88;;;;;;;22.48;31.14;64326.75;5083931;28;20218;-74
2022/05/07 11:50:22;;;;;;;2.00;1.90;;;;;;;22.07;32.64;64278.72;5086619;28;20590;-74
2022/05/07 11:52:49;;;;;;;2.45;1.92;;;;;;;21.85;29.70;64258.31;5087329;28;20198;-73
2022/05/07 11:55:17;;;;;;;2.15;2.05;;;;;;;22.13;32.03;64284.97;5103898;28;20219;-74
2022/05/07 11:57:46;;;;;;;2.00;1.90;;;;;;;22.03;32.08;64277.66;5101496;28;20231;-74
2022/05/07 12:00:16;;;;;;;3.95;2.30;;;;;;;22.08;32.32;64282.88;5101421;28;20532;-75
2022/05/07 12:02:50;;;;;;;1.88;1.77;;;;;;;22.16;30.22;64291.22;5096919;28;20223;-74
2022/05/07 12:05:18;;;;;;;3.55;2.05;;;;;;;21.72;29.48;64242.66;5087242;28;20402;-75